sensor_id;sensor_type;location;lat;lon;timestamp;pressure;altitude;pressure_sealevel;temperature;humidity
68628;BME280;55611;48.602;9.490;2024-03-29T00:00:32;95300;;;13.3;54.5
68628;BME280;55611;48.602;9.490;2024-03-29T00:03:03;95300;;;13.5;54.5
68628;BME280;55611;48.602;9.490;2024-03-29T00:05:33;95290;;;13.6;54.5
68628;BME280;55611;48.602;9.490;2024-03-29T00:08:04;95280;;;13.7;54.5
68628;BME280;55611;48.602;9.490;2024-03-29T00:10:35;95280;;;13.7;54.5
68628;BME280;55611;48.602;9.490;2024-03-29T00:13:06;95280;;;13.8;54.5
68628;BME280;55611;48.602;9.490;2024-03-29T00:15:36;95270;;;13.8;54.5
68628;BME280;55611;48.602;9.490;2024-03-29T00:18:07;95260;;;13.8;54.5
68628;BME280;55611;48.602;9.490;2024-03-29T00:20:38;95250;;;13.9;54.5
68628;BME280;55611;48.602;9.490;2024-03-29T00:23:09;95240;;;13.9;54.5
68628;BME280;55611;48.602;9.490;2024-03-29T00:25:39;95230;;;13.9;54.5
68628;BME280;55611;48.602;9.490;2024-03-29T00:28:10;95230;;;13.9;54.5
68628;BME280;55611;48.602;9.490;2024-03-29T00:30:41;95220;;;13.8;54.5
68628;BME280;55611;48.602;9.490;2024-03-29T00:33:12;95210;;;13.8;54.5
68628;BME280;55611;48.602;9.490;2024-03-29T00:35:42;95200;;;13.9;54.5
68628;BME280;55611;48.602;9.490;2024-03-29T00:38:13;95200;;;14;54.5
68628;BME280;55611;48.602;9.490;2024-03-29T00:40:44;95190;;;14;54
68628;BME280;55611;48.602;9.490;2024-03-29T00:43:15;95180;;;14.1;54
68628;BME280;55611;48.602;9.490;2024-03-29T00:45:46;95170;;;14.1;54
68628;BME280;55611;48.602;9.490;2024-03-29T00:48:17;95150;;;14.2;54
68628;BME280;55611;48.602;9.490;2024-03-29T00:50:47;95140;;;14.2;54
68628;BME280;55611;48.602;9.490;2024-03-29T00:53:18;95130;;;14.3;54
68628;BME280;55611;48.602;9.490;2024-03-29T00:55:49;95130;;;14.3;54
68628;BME280;55611;48.602;9.490;2024-03-29T00:58:19;95150;;;14.2;54
68628;BME280;55611;48.602;9.490;2024-03-29T01:00:50;95150;;;14.1;54
68628;BME280;55611;48.602;9.490;2024-03-29T01:03:21;95150;;;14;54
68628;BME280;55611;48.602;9.490;2024-03-29T01:05:52;95150;;;13.8;54
68628;BME280;55611;48.602;9.490;2024-03-29T01:08:22;95160;;;13.8;54
68628;BME280;55611;48.602;9.490;2024-03-29T01:10:53;95170;;;13.9;54
68628;BME280;55611;48.602;9.490;2024-03-29T01:13:24;95180;;;13.8;54
68628;BME280;55611;48.602;9.490;2024-03-29T01:15:55;95180;;;13.7;54
68628;BME280;55611;48.602;9.490;2024-03-29T01:18:26;95160;;;13.6;54
68628;BME280;55611;48.602;9.490;2024-03-29T01:20:56;95150;;;13.4;54
68628;BME280;55611;48.602;9.490;2024-03-29T01:23:27;95150;;;13.4;54
68628;BME280;55611;48.602;9.490;2024-03-29T01:25:58;95150;;;13.4;54
68628;BME280;55611;48.602;9.490;2024-03-29T01:28:29;95140;;;13.5;54
68628;BME280;55611;48.602;9.490;2024-03-29T01:30:59;95140;;;13.4;54
68628;BME280;55611;48.602;9.490;2024-03-29T01:33:30;95130;;;13.4;54
68628;BME280;55611;48.602;9.490;2024-03-29T01:36:01;95150;;;13.3;54
68628;BME280;55611;48.602;9.490;2024-03-29T01:38:32;95140;;;13.4;54
68628;BME280;55611;48.602;9.490;2024-03-29T01:41:03;95150;;;13.4;54
68628;BME280;55611;48.602;9.490;2024-03-29T01:43:33;95150;;;13.4;54
68628;BME280;55611;48.602;9.490;2024-03-29T01:46:04;95140;;;13.3;54
68628;BME280;55611;48.602;9.490;2024-03-29T01:48:35;95140;;;13.3;54
68628;BME280;55611;48.602;9.490;2024-03-29T01:51:06;95150;;;13.3;54
68628;BME280;55611;48.602;9.490;2024-03-29T01:53:36;95140;;;13.3;54
68628;BME280;55611;48.602;9.490;2024-03-29T01:56:07;95130;;;13.4;54
68628;BME280;55611;48.602;9.490;2024-03-29T01:58:38;95130;;;13.4;54
68628;BME280;55611;48.602;9.490;2024-03-29T02:01:09;95130;;;13.6;54
68628;BME280;55611;48.602;9.490;2024-03-29T02:03:40;95130;;;13.7;53.5
68628;BME280;55611;48.602;9.490;2024-03-29T02:06:10;95130;;;13.7;53.5
68628;BME280;55611;48.602;9.490;2024-03-29T02:08:41;95120;;;13.8;53.5
68628;BME280;55611;48.602;9.490;2024-03-29T02:11:12;95130;;;13.7;53.5
68628;BME280;55611;48.602;9.490;2024-03-29T02:13:43;95120;;;13.7;53.5
68628;BME280;55611;48.602;9.490;2024-03-29T02:16:13;95120;;;13.7;53.5
68628;BME280;55611;48.602;9.490;2024-03-29T02:18:44;95120;;;13.7;53.5
68628;BME280;55611;48.602;9.490;2024-03-29T02:21:31;95100;;;13.8;53.5
68628;BME280;55611;48.602;9.490;2024-03-29T02:23:47;95110;;;13.8;53.5
68628;BME280;55611;48.602;9.490;2024-03-29T02:26:16;95110;;;13.8;53.5
68628;BME280;55611;48.602;9.490;2024-03-29T02:28:47;95100;;;13.8;53.5
68628;BME280;55611;48.602;9.490;2024-03-29T02:31:18;95100;;;14;53.5
68628;BME280;55611;48.602;9.490;2024-03-29T02:33:49;95100;;;14;53.5
68628;BME280;55611;48.602;9.490;2024-03-29T02:36:20;95100;;;14;53.5
68628;BME280;55611;48.602;9.490;2024-03-29T02:38:50;95100;;;13.9;53.5
68628;BME280;55611;48.602;9.490;2024-03-29T02:41:22;95090;;;13.9;53.5
68628;BME280;55611;48.602;9.490;2024-03-29T02:43:53;95100;;;13.9;53.5
68628;BME280;55611;48.602;9.490;2024-03-29T02:46:23;95090;;;14.1;53.5
68628;BME280;55611;48.602;9.490;2024-03-29T02:48:53;95080;;;14.2;53.5
68628;BME280;55611;48.602;9.490;2024-03-29T02:51:24;95060;;;14.2;53.5
68628;BME280;55611;48.602;9.490;2024-03-29T02:53:55;95070;;;14.1;53.5
68628;BME280;55611;48.602;9.490;2024-03-29T02:56:26;95060;;;14.1;53.5
68628;BME280;55611;48.602;9.490;2024-03-29T02:58:57;95060;;;14;53.5
68628;BME280;55611;48.602;9.490;2024-03-29T03:01:27;95070;;;14;53.5
68628;BME280;55611;48.602;9.490;2024-03-29T03:03:58;95080;;;14;53.5
68628;BME280;55611;48.602;9.490;2024-03-29T03:06:29;95080;;;14.1;53.5
68628;BME280;55611;48.602;9.490;2024-03-29T03:09:00;95080;;;14.2;53.5
68628;BME280;55611;48.602;9.490;2024-03-29T03:11:30;95080;;;14.2;53.5
68628;BME280;55611;48.602;9.490;2024-03-29T03:14:01;95100;;;14.1;53.5
68628;BME280;55611;48.602;9.490;2024-03-29T03:16:32;95100;;;14;53
68628;BME280;55611;48.602;9.490;2024-03-29T03:19:03;95100;;;14.1;53.5
68628;BME280;55611;48.602;9.490;2024-03-29T03:21:34;95090;;;14.3;53.5
68628;BME280;55611;48.602;9.490;2024-03-29T03:24:04;95100;;;14.3;53
68628;BME280;55611;48.602;9.490;2024-03-29T03:26:35;95110;;;14.3;53
68628;BME280;55611;48.602;9.490;2024-03-29T03:29:06;95100;;;14.4;53
68628;BME280;55611;48.602;9.490;2024-03-29T03:31:37;95100;;;14.4;53
68628;BME280;55611;48.602;9.490;2024-03-29T03:34:07;95090;;;14.5;53
68628;BME280;55611;48.602;9.490;2024-03-29T03:36:38;95080;;;14.6;53
68628;BME280;55611;48.602;9.490;2024-03-29T03:39:09;95070;;;14.7;53
68628;BME280;55611;48.602;9.490;2024-03-29T03:41:40;95090;;;14.7;53
68628;BME280;55611;48.602;9.490;2024-03-29T03:44:10;95120;;;14.7;53
68628;BME280;55611;48.602;9.490;2024-03-29T03:46:41;95110;;;14.7;53
68628;BME280;55611;48.602;9.490;2024-03-29T03:51:43;95100;;;14.5;53
68628;BME280;55611;48.602;9.490;2024-03-29T03:54:14;95100;;;14.4;53
68628;BME280;55611;48.602;9.490;2024-03-29T03:56:44;95100;;;14.5;53
68628;BME280;55611;48.602;9.490;2024-03-29T03:59:15;95120;;;14.7;53
68628;BME280;55611;48.602;9.490;2024-03-29T04:01:46;95110;;;14.7;53
68628;BME280;55611;48.602;9.490;2024-03-29T04:04:17;95100;;;14.8;53
68628;BME280;55611;48.602;9.490;2024-03-29T04:06:47;95100;;;14.8;53
68628;BME280;55611;48.602;9.490;2024-03-29T04:09:18;95100;;;14.7;53
68628;BME280;55611;48.602;9.490;2024-03-29T04:11:49;95100;;;14.7;53
68628;BME280;55611;48.602;9.490;2024-03-29T04:14:20;95090;;;14.7;53
68628;BME280;55611;48.602;9.490;2024-03-29T04:16:51;95070;;;14.7;52.5
68628;BME280;55611;48.602;9.490;2024-03-29T04:19:21;95070;;;14.9;52.5
68628;BME280;55611;48.602;9.490;2024-03-29T04:21:52;95060;;;15.1;53
68628;BME280;55611;48.602;9.490;2024-03-29T04:24:23;95060;;;15.2;53
68628;BME280;55611;48.602;9.490;2024-03-29T04:26:54;95070;;;15.3;53
68628;BME280;55611;48.602;9.490;2024-03-29T04:29:25;95070;;;15.4;52.5
68628;BME280;55611;48.602;9.490;2024-03-29T04:31:55;95080;;;15.4;52.5
68628;BME280;55611;48.602;9.490;2024-03-29T04:34:26;95070;;;15.2;52.5
68628;BME280;55611;48.602;9.490;2024-03-29T04:36:57;95070;;;14.8;52.5
68628;BME280;55611;48.602;9.490;2024-03-29T04:39:28;95090;;;14.6;52.5
68628;BME280;55611;48.602;9.490;2024-03-29T04:41:58;95090;;;14.4;52.5
68628;BME280;55611;48.602;9.490;2024-03-29T04:44:29;95100;;;14.3;52.5
68628;BME280;55611;48.602;9.490;2024-03-29T04:47:00;95090;;;14.5;52.5
68628;BME280;55611;48.602;9.490;2024-03-29T04:49:31;95110;;;14.8;52.5
68628;BME280;55611;48.602;9.490;2024-03-29T04:52:05;95110;;;14.9;52.5
68628;BME280;55611;48.602;9.490;2024-03-29T04:54:33;95110;;;15;52.5
68628;BME280;55611;48.602;9.490;2024-03-29T04:57:03;95100;;;15.1;52.5
68628;BME280;55611;48.602;9.490;2024-03-29T04:59:34;95090;;;15.3;52.5
68628;BME280;55611;48.602;9.490;2024-03-29T05:02:05;95080;;;15.4;52.5
68628;BME280;55611;48.602;9.490;2024-03-29T05:04:35;95080;;;15.5;52.5
68628;BME280;55611;48.602;9.490;2024-03-29T05:07:06;95070;;;15.6;52.5
68628;BME280;55611;48.602;9.490;2024-03-29T05:09:37;95070;;;15.5;52.5
68628;BME280;55611;48.602;9.490;2024-03-29T05:12:08;95060;;;15.4;52.5
68628;BME280;55611;48.602;9.490;2024-03-29T05:14:39;95070;;;15.4;52.5
68628;BME280;55611;48.602;9.490;2024-03-29T05:17:09;95070;;;15.2;52.5
68628;BME280;55611;48.602;9.490;2024-03-29T05:19:40;95080;;;14.8;52.5
68628;BME280;55611;48.602;9.490;2024-03-29T05:22:11;95080;;;14.5;52.5
68628;BME280;55611;48.602;9.490;2024-03-29T05:24:42;95070;;;14.2;52.5
68628;BME280;55611;48.602;9.490;2024-03-29T05:27:12;95080;;;14.3;52.5
68628;BME280;55611;48.602;9.490;2024-03-29T05:29:43;95080;;;14.4;52.5
68628;BME280;55611;48.602;9.490;2024-03-29T05:32:14;95080;;;14.5;52.5
68628;BME280;55611;48.602;9.490;2024-03-29T05:34:45;95080;;;14.4;52.5
68628;BME280;55611;48.602;9.490;2024-03-29T05:37:15;95070;;;14.4;52.5
68628;BME280;55611;48.602;9.490;2024-03-29T05:39:46;95080;;;14.3;52.5
68628;BME280;55611;48.602;9.490;2024-03-29T05:42:17;95090;;;14.3;52
68628;BME280;55611;48.602;9.490;2024-03-29T05:44:48;95090;;;14.2;52
68628;BME280;55611;48.602;9.490;2024-03-29T05:47:19;95100;;;14.1;52
68628;BME280;55611;48.602;9.490;2024-03-29T05:49:49;95100;;;14;52.5
68628;BME280;55611;48.602;9.490;2024-03-29T05:52:20;95100;;;14.1;52.5
68628;BME280;55611;48.602;9.490;2024-03-29T05:54:51;95110;;;14.1;52.5
68628;BME280;55611;48.602;9.490;2024-03-29T05:57:22;95100;;;14.2;52
68628;BME280;55611;48.602;9.490;2024-03-29T05:59:52;95110;;;14.1;52
68628;BME280;55611;48.602;9.490;2024-03-29T06:02:23;95130;;;14;52
68628;BME280;55611;48.602;9.490;2024-03-29T06:04:54;95140;;;13.8;52.5
68628;BME280;55611;48.602;9.490;2024-03-29T06:07:25;95130;;;13.8;52.5
68628;BME280;55611;48.602;9.490;2024-03-29T06:09:55;95130;;;13.6;52.5
68628;BME280;55611;48.602;9.490;2024-03-29T06:12:26;95120;;;14;52.5
68628;BME280;55611;48.602;9.490;2024-03-29T06:14:57;95120;;;14.3;52.5
68628;BME280;55611;48.602;9.490;2024-03-29T06:17:28;95130;;;14.4;52.5
68628;BME280;55611;48.602;9.490;2024-03-29T06:19:59;95140;;;14.5;52.5
68628;BME280;55611;48.602;9.490;2024-03-29T06:22:29;95120;;;14.8;52.5
68628;BME280;55611;48.602;9.490;2024-03-29T06:25:00;95100;;;15.1;52.5
68628;BME280;55611;48.602;9.490;2024-03-29T06:27:32;95100;;;15.7;52.5
68628;BME280;55611;48.602;9.490;2024-03-29T06:30:02;95100;;;16;52.5
68628;BME280;55611;48.602;9.490;2024-03-29T06:32:32;95110;;;16;52.5
68628;BME280;55611;48.602;9.490;2024-03-29T06:35:03;95110;;;16;52.5
68628;BME280;55611;48.602;9.490;2024-03-29T06:37:34;95100;;;16.3;52.5
68628;BME280;55611;48.602;9.490;2024-03-29T06:40:05;95110;;;16.4;52.5
68628;BME280;55611;48.602;9.490;2024-03-29T06:42:36;95100;;;16.6;52.5
68628;BME280;55611;48.602;9.490;2024-03-29T06:45:06;95100;;;16.8;52.5
68628;BME280;55611;48.602;9.490;2024-03-29T06:47:37;95100;;;16.8;52.5
68628;BME280;55611;48.602;9.490;2024-03-29T06:50:08;95100;;;16.9;52
68628;BME280;55611;48.602;9.490;2024-03-29T06:52:39;95100;;;17.1;52
68628;BME280;55611;48.602;9.490;2024-03-29T06:55:09;95100;;;17.2;52
68628;BME280;55611;48.602;9.490;2024-03-29T06:57:40;95100;;;17.3;52
68628;BME280;55611;48.602;9.490;2024-03-29T07:00:11;95090;;;17.3;52
68628;BME280;55611;48.602;9.490;2024-03-29T07:02:42;95090;;;17.2;52
68628;BME280;55611;48.602;9.490;2024-03-29T07:05:13;95100;;;17.2;52
68628;BME280;55611;48.602;9.490;2024-03-29T07:07:43;95090;;;17.2;52
68628;BME280;55611;48.602;9.490;2024-03-29T07:10:14;95090;;;17.1;52
68628;BME280;55611;48.602;9.490;2024-03-29T07:12:45;95080;;;17.1;52
68628;BME280;55611;48.602;9.490;2024-03-29T07:15:16;95080;;;17.1;52
68628;BME280;55611;48.602;9.490;2024-03-29T07:17:46;95080;;;17;52
68628;BME280;55611;48.602;9.490;2024-03-29T07:20:17;95090;;;17;52
68628;BME280;55611;48.602;9.490;2024-03-29T07:22:48;95090;;;17;52
68628;BME280;55611;48.602;9.490;2024-03-29T07:25:19;95080;;;17;52
68628;BME280;55611;48.602;9.490;2024-03-29T07:27:50;95080;;;17.1;52
68628;BME280;55611;48.602;9.490;2024-03-29T07:30:20;95090;;;16.9;52
68628;BME280;55611;48.602;9.490;2024-03-29T07:32:51;95080;;;16.8;52
68628;BME280;55611;48.602;9.490;2024-03-29T07:35:22;95100;;;16.8;52
68628;BME280;55611;48.602;9.490;2024-03-29T07:37:53;95130;;;16.7;52
68628;BME280;55611;48.602;9.490;2024-03-29T07:40:23;95120;;;16.6;52
68628;BME280;55611;48.602;9.490;2024-03-29T07:42:54;95130;;;16.6;52
68628;BME280;55611;48.602;9.490;2024-03-29T07:45:25;95150;;;16.5;52
68628;BME280;55611;48.602;9.490;2024-03-29T07:47:56;95170;;;16.5;52.5
68628;BME280;55611;48.602;9.490;2024-03-29T07:50:26;95180;;;16.6;52.5
68628;BME280;55611;48.602;9.490;2024-03-29T07:52:57;95170;;;16.6;52.5
68628;BME280;55611;48.602;9.490;2024-03-29T07:55:28;95180;;;16.7;52.5
68628;BME280;55611;48.602;9.490;2024-03-29T07:57:59;95190;;;16.8;52.5
68628;BME280;55611;48.602;9.490;2024-03-29T08:00:30;95190;;;16.9;52.5
68628;BME280;55611;48.602;9.490;2024-03-29T08:03:00;95180;;;17;52.5
68628;BME280;55611;48.602;9.490;2024-03-29T08:05:31;95190;;;17;52.5
68628;BME280;55611;48.602;9.490;2024-03-29T08:08:02;95190;;;17;52.5
68628;BME280;55611;48.602;9.490;2024-03-29T08:10:33;95200;;;17;52.5
68628;BME280;55611;48.602;9.490;2024-03-29T08:13:03;95190;;;17.1;52.5
68628;BME280;55611;48.602;9.490;2024-03-29T08:15:34;95200;;;17.2;52.5
68628;BME280;55611;48.602;9.490;2024-03-29T08:18:05;95200;;;17.2;52.5
68628;BME280;55611;48.602;9.490;2024-03-29T08:20:36;95200;;;17.3;52.5
68628;BME280;55611;48.602;9.490;2024-03-29T08:23:07;95200;;;17.3;52.5
68628;BME280;55611;48.602;9.490;2024-03-29T08:25:37;95200;;;17.3;52.5
68628;BME280;55611;48.602;9.490;2024-03-29T08:28:08;95210;;;17.3;52.5
68628;BME280;55611;48.602;9.490;2024-03-29T08:30:39;95210;;;17.3;52.5
68628;BME280;55611;48.602;9.490;2024-03-29T08:33:10;95200;;;17.4;52.5
68628;BME280;55611;48.602;9.490;2024-03-29T08:35:41;95200;;;17.5;52.5
68628;BME280;55611;48.602;9.490;2024-03-29T08:38:11;95210;;;17.2;52.5
68628;BME280;55611;48.602;9.490;2024-03-29T08:40:42;95220;;;16.8;52.5
68628;BME280;55611;48.602;9.490;2024-03-29T08:43:13;95220;;;16.6;52.5
68628;BME280;55611;48.602;9.490;2024-03-29T08:45:44;95230;;;16.2;52.5
68628;BME280;55611;48.602;9.490;2024-03-29T08:48:14;95230;;;15.9;52.5
68628;BME280;55611;48.602;9.490;2024-03-29T08:50:45;95250;;;15.8;52.5
68628;BME280;55611;48.602;9.490;2024-03-29T08:53:16;95250;;;15.6;52.5
68628;BME280;55611;48.602;9.490;2024-03-29T08:55:47;95250;;;15.4;53
68628;BME280;55611;48.602;9.490;2024-03-29T08:58:17;95250;;;15.2;53
68628;BME280;55611;48.602;9.490;2024-03-29T09:00:55;95250;;;15.1;53
68628;BME280;55611;48.602;9.490;2024-03-29T09:03:19;95260;;;14.8;53
68628;BME280;55611;48.602;9.490;2024-03-29T09:05:50;95260;;;14.6;53
68628;BME280;55611;48.602;9.490;2024-03-29T09:08:20;95270;;;14.6;53
68628;BME280;55611;48.602;9.490;2024-03-29T09:10:51;95280;;;14.6;53
68628;BME280;55611;48.602;9.490;2024-03-29T09:13:22;95260;;;14.5;53
68628;BME280;55611;48.602;9.490;2024-03-29T09:15:53;95250;;;14.5;53
68628;BME280;55611;48.602;9.490;2024-03-29T09:18:24;95270;;;14.5;53
68628;BME280;55611;48.602;9.490;2024-03-29T09:20:56;95250;;;14.7;53
68628;BME280;55611;48.602;9.490;2024-03-29T09:23:26;95260;;;14.9;52.5
68628;BME280;55611;48.602;9.490;2024-03-29T09:25:56;95260;;;14.9;52.5
68628;BME280;55611;48.602;9.490;2024-03-29T09:28:27;95250;;;15;52.5
68628;BME280;55611;48.602;9.490;2024-03-29T09:30:57;95250;;;15.1;52.5
68628;BME280;55611;48.602;9.490;2024-03-29T09:33:28;95230;;;15.1;52.5
68628;BME280;55611;48.602;9.490;2024-03-29T09:35:59;95250;;;15.1;52.5
68628;BME280;55611;48.602;9.490;2024-03-29T09:38:30;95270;;;15.2;52.5
68628;BME280;55611;48.602;9.490;2024-03-29T09:41:06;95260;;;15.2;52.5
68628;BME280;55611;48.602;9.490;2024-03-29T09:43:31;95260;;;15.2;52.5
68628;BME280;55611;48.602;9.490;2024-03-29T09:46:02;95260;;;15.1;52.5
68628;BME280;55611;48.602;9.490;2024-03-29T09:48:33;95260;;;15.2;52.5
68628;BME280;55611;48.602;9.490;2024-03-29T09:51:04;95260;;;15.2;53
68628;BME280;55611;48.602;9.490;2024-03-29T09:53:35;95260;;;15.2;53
68628;BME280;55611;48.602;9.490;2024-03-29T09:56:05;95250;;;15.3;53
68628;BME280;55611;48.602;9.490;2024-03-29T09:58:36;95250;;;15.6;53
68628;BME280;55611;48.602;9.490;2024-03-29T10:01:07;95250;;;15.8;53
68628;BME280;55611;48.602;9.490;2024-03-29T10:03:39;95240;;;15.9;53
68628;BME280;55611;48.602;9.490;2024-03-29T10:06:08;95240;;;16;53
68628;BME280;55611;48.602;9.490;2024-03-29T10:08:39;95230;;;16.1;53
68628;BME280;55611;48.602;9.490;2024-03-29T10:11:10;95220;;;16.1;53
68628;BME280;55611;48.602;9.490;2024-03-29T10:13:41;95220;;;16.1;53
68628;BME280;55611;48.602;9.490;2024-03-29T10:16:12;95210;;;16.3;53
68628;BME280;55611;48.602;9.490;2024-03-29T10:18:42;95210;;;16.3;53
68628;BME280;55611;48.602;9.490;2024-03-29T10:21:13;95220;;;16.4;53
68628;BME280;55611;48.602;9.490;2024-03-29T10:23:44;95220;;;16.5;53
68628;BME280;55611;48.602;9.490;2024-03-29T10:26:15;95220;;;16.5;53
68628;BME280;55611;48.602;9.490;2024-03-29T10:28:46;95220;;;16.7;53
68628;BME280;55611;48.602;9.490;2024-03-29T10:31:17;95210;;;16.7;53
68628;BME280;55611;48.602;9.490;2024-03-29T10:33:47;95200;;;16.8;53
68628;BME280;55611;48.602;9.490;2024-03-29T10:36:18;95200;;;17;53
68628;BME280;55611;48.602;9.490;2024-03-29T10:38:48;95200;;;17.1;53
68628;BME280;55611;48.602;9.490;2024-03-29T10:41:19;95190;;;17.3;53
68628;BME280;55611;48.602;9.490;2024-03-29T10:43:50;95190;;;17.5;53
68628;BME280;55611;48.602;9.490;2024-03-29T10:46:21;95190;;;17.5;53
68628;BME280;55611;48.602;9.490;2024-03-29T10:48:51;95190;;;17.5;53
68628;BME280;55611;48.602;9.490;2024-03-29T10:51:22;95180;;;17.5;53
68628;BME280;55611;48.602;9.490;2024-03-29T10:53:53;95190;;;17.6;53
68628;BME280;55611;48.602;9.490;2024-03-29T10:56:24;95180;;;17.6;53
68628;BME280;55611;48.602;9.490;2024-03-29T10:58:56;95170;;;17.6;53
68628;BME280;55611;48.602;9.490;2024-03-29T11:01:26;95170;;;17.7;53
68628;BME280;55611;48.602;9.490;2024-03-29T11:03:58;95170;;;17.8;53
68628;BME280;55611;48.602;9.490;2024-03-29T11:06:27;95160;;;17.7;53
68628;BME280;55611;48.602;9.490;2024-03-29T11:08:58;95160;;;17.8;53
68628;BME280;55611;48.602;9.490;2024-03-29T11:11:28;95160;;;17.8;53
68628;BME280;55611;48.602;9.490;2024-03-29T11:14:03;95150;;;17.9;53
68628;BME280;55611;48.602;9.490;2024-03-29T11:16:30;95150;;;17.9;53
68628;BME280;55611;48.602;9.490;2024-03-29T11:19:02;95150;;;17.9;53
68628;BME280;55611;48.602;9.490;2024-03-29T11:21:32;95150;;;17.9;53
68628;BME280;55611;48.602;9.490;2024-03-29T11:24:03;95150;;;18;53
68628;BME280;55611;48.602;9.490;2024-03-29T11:26:33;95150;;;18;53
68628;BME280;55611;48.602;9.490;2024-03-29T11:29:04;95140;;;18.1;53
68628;BME280;55611;48.602;9.490;2024-03-29T11:31:37;95140;;;18.2;53
68628;BME280;55611;48.602;9.490;2024-03-29T11:34:08;95140;;;18.3;53
68628;BME280;55611;48.602;9.490;2024-03-29T11:36:38;95140;;;18.3;53
68628;BME280;55611;48.602;9.490;2024-03-29T11:39:07;95130;;;18.4;53
68628;BME280;55611;48.602;9.490;2024-03-29T11:41:38;95140;;;18.4;53
68628;BME280;55611;48.602;9.490;2024-03-29T11:44:09;95140;;;18.4;53
68628;BME280;55611;48.602;9.490;2024-03-29T11:46:39;95140;;;18.5;53
68628;BME280;55611;48.602;9.490;2024-03-29T11:49:10;95140;;;18.7;52.5
68628;BME280;55611;48.602;9.490;2024-03-29T11:54:12;95140;;;18.7;52.5
68628;BME280;55611;48.602;9.490;2024-03-29T11:56:42;95130;;;18.8;52.5
68628;BME280;55611;48.602;9.490;2024-03-29T11:59:13;95130;;;18.9;52.5
68628;BME280;55611;48.602;9.490;2024-03-29T12:01:44;95130;;;19;52.5
68628;BME280;55611;48.602;9.490;2024-03-29T12:04:22;95140;;;19.2;52.5
68628;BME280;55611;48.602;9.490;2024-03-29T12:06:45;95140;;;19.5;52.5
68628;BME280;55611;48.602;9.490;2024-03-29T12:09:16;95130;;;19.6;52.5
68628;BME280;55611;48.602;9.490;2024-03-29T12:11:47;95130;;;19.7;53
68628;BME280;55611;48.602;9.490;2024-03-29T12:14:18;95130;;;19.9;52.5
68628;BME280;55611;48.602;9.490;2024-03-29T12:16:49;95140;;;20;52.5
68628;BME280;55611;48.602;9.490;2024-03-29T12:19:23;95140;;;20.1;52.5
68628;BME280;55611;48.602;9.490;2024-03-29T12:21:50;95130;;;20.1;52.5
68628;BME280;55611;48.602;9.490;2024-03-29T12:24:21;95120;;;20.2;52.5
68628;BME280;55611;48.602;9.490;2024-03-29T12:26:52;95110;;;20.4;52.5
68628;BME280;55611;48.602;9.490;2024-03-29T12:29:23;95120;;;20.6;52.5
68628;BME280;55611;48.602;9.490;2024-03-29T12:31:58;95110;;;20.7;52.5
68628;BME280;55611;48.602;9.490;2024-03-29T12:34:24;95110;;;20.7;52
68628;BME280;55611;48.602;9.490;2024-03-29T12:36:57;95110;;;20.5;52
68628;BME280;55611;48.602;9.490;2024-03-29T12:39:26;95120;;;20.5;52
68628;BME280;55611;48.602;9.490;2024-03-29T12:41:56;95120;;;20.4;52
68628;BME280;55611;48.602;9.490;2024-03-29T12:44:27;95110;;;20.4;52
68628;BME280;55611;48.602;9.490;2024-03-29T12:46:58;95110;;;20.5;52
68628;BME280;55611;48.602;9.490;2024-03-29T12:49:29;95110;;;20.7;52
68628;BME280;55611;48.602;9.490;2024-03-29T12:51:59;95110;;;20.8;52
68628;BME280;55611;48.602;9.490;2024-03-29T12:54:30;95100;;;20.9;52.5
68628;BME280;55611;48.602;9.490;2024-03-29T12:57:01;95110;;;21;52.5
68628;BME280;55611;48.602;9.490;2024-03-29T12:59:33;95120;;;21.1;52.5
68628;BME280;55611;48.602;9.490;2024-03-29T13:02:03;95130;;;20.9;52.5
68628;BME280;55611;48.602;9.490;2024-03-29T13:04:33;95130;;;20.8;52.5
68628;BME280;55611;48.602;9.490;2024-03-29T13:07:04;95140;;;20.9;52.5
68628;BME280;55611;48.602;9.490;2024-03-29T13:09:35;95130;;;20.9;52.5
68628;BME280;55611;48.602;9.490;2024-03-29T13:12:06;95140;;;20.7;52.5
68628;BME280;55611;48.602;9.490;2024-03-29T13:14:36;95130;;;20.7;52
68628;BME280;55611;48.602;9.490;2024-03-29T13:17:07;95140;;;20.5;52
68628;BME280;55611;48.602;9.490;2024-03-29T13:19:38;95150;;;20.4;52
68628;BME280;55611;48.602;9.490;2024-03-29T13:22:09;95150;;;20.3;52
68628;BME280;55611;48.602;9.490;2024-03-29T13:24:39;95150;;;19.9;52
68628;BME280;55611;48.602;9.490;2024-03-29T13:27:10;95160;;;20;52
68628;BME280;55611;48.602;9.490;2024-03-29T13:29:41;95170;;;19.9;52
68628;BME280;55611;48.602;9.490;2024-03-29T13:32:12;95160;;;20;52
68628;BME280;55611;48.602;9.490;2024-03-29T13:34:43;95160;;;19.9;52
68628;BME280;55611;48.602;9.490;2024-03-29T13:37:13;95160;;;20;52
68628;BME280;55611;48.602;9.490;2024-03-29T13:39:44;95160;;;19.9;52
68628;BME280;55611;48.602;9.490;2024-03-29T13:42:15;95160;;;19.9;52
68628;BME280;55611;48.602;9.490;2024-03-29T13:44:46;95170;;;19.9;52
68628;BME280;55611;48.602;9.490;2024-03-29T13:47:17;95170;;;19.8;52
68628;BME280;55611;48.602;9.490;2024-03-29T13:49:47;95170;;;19.7;52
68628;BME280;55611;48.602;9.490;2024-03-29T13:52:18;95170;;;19.7;52
68628;BME280;55611;48.602;9.490;2024-03-29T13:54:49;95170;;;19.7;52
68628;BME280;55611;48.602;9.490;2024-03-29T13:57:20;95170;;;19.7;52
68628;BME280;55611;48.602;9.490;2024-03-29T13:59:50;95170;;;19.8;52
68628;BME280;55611;48.602;9.490;2024-03-29T14:02:21;95170;;;19.8;52
68628;BME280;55611;48.602;9.490;2024-03-29T14:04:52;95180;;;19.8;52
68628;BME280;55611;48.602;9.490;2024-03-29T14:09:53;95170;;;19.8;52
68628;BME280;55611;48.602;9.490;2024-03-29T14:12:24;95170;;;19.9;52
68628;BME280;55611;48.602;9.490;2024-03-29T14:14:55;95170;;;20;52
68628;BME280;55611;48.602;9.490;2024-03-29T14:17:26;95160;;;20;52
68628;BME280;55611;48.602;9.490;2024-03-29T14:19:57;95160;;;20;52
68628;BME280;55611;48.602;9.490;2024-03-29T14:22:27;95160;;;20;52
68628;BME280;55611;48.602;9.490;2024-03-29T14:24:58;95160;;;20;52
68628;BME280;55611;48.602;9.490;2024-03-29T14:27:29;95160;;;20;52
68628;BME280;55611;48.602;9.490;2024-03-29T14:30:00;95150;;;20.1;52
68628;BME280;55611;48.602;9.490;2024-03-29T14:32:30;95150;;;20.1;52
68628;BME280;55611;48.602;9.490;2024-03-29T14:35:01;95150;;;20.2;52
68628;BME280;55611;48.602;9.490;2024-03-29T14:37:32;95140;;;20.2;52